Time;durP1;ratioP1;P1;durP2;ratioP2;P2;SDS_P1;SDS_P2;PMS_P1;PMS_P2;Temp;Humidity;BMP_temperature;BMP_pressure;BME280_temperature;BME280_humidity;BME280_pressure;Samples;Min_cycle;Max_cycle;Signal;HPM_P1;HPM_P2
2023/05/19 08:06:30;;;;;;;11.95;6.22;;;;;;;12.46;85.56;102392.63;5089445;27;20381;-76
2023/05/19 08:08:55;;;;;;;18.17;6.85;;;;;;;12.51;83.46;102390.97;5088069;28;20115;-74
2023/05/19 08:11:21;;;;;;;14.15;7.10;;;;;;;12.62;83.48;102391.44;5089470;28;20063;-75
2023/05/19 08:13:48;;;;;;;12.52;6.80;;;;;;;12.71;79.77;102392.94;5089470;28;20039;-78
2023/05/19 08:16:16;;;;;;;10.90;6.00;;;;;;;12.84;76.83;102394.91;5069674;28;20029;-76
2023/05/19 08:18:41;;;;;;;11.23;6.60;;;;;;;12.90;75.63;102384.06;5069688;28;20040;-76
2023/05/19 08:21:07;;;;;;;11.70;6.03;;;;;;;12.99;73.12;102386.63;5069212;28;20020;-72
2023/05/19 08:23:33;;;;;;;10.93;5.57;;;;;;;13.05;74.20;102378.47;5069652;28;20040;-71
2023/05/19 08:25:58;;;;;;;14.32;6.78;;;;;;;13.14;71.84;102373.69;5069605;28;20491;-75
2023/05/19 08:28:24;;;;;;;11.93;6.70;;;;;;;13.27;73.81;102376.44;5067308;28;20037;-71
2023/05/19 08:30:51;;;;;;;12.35;5.90;;;;;;;13.40;71.13;102374.81;5069817;28;20032;-76
2023/05/19 08:33:16;;;;;;;15.15;5.90;;;;;;;13.45;68.50;102370.44;5068706;28;20139;-76
2023/05/19 08:35:42;;;;;;;17.08;6.45;;;;;;;13.67;68.89;102367.53;5102010;28;20059;-77
2023/05/19 08:38:07;;;;;;;14.55;6.10;;;;;;;13.66;68.09;102360.41;5067761;28;20081;-74
2023/05/19 08:40:36;;;;;;;11.95;5.88;;;;;;;13.77;66.48;102364.41;5069384;28;20384;-76
2023/05/19 08:43:02;;;;;;;15.85;6.60;;;;;;;13.79;67.64;102362.31;5068549;28;20392;-76
2023/05/19 08:45:28;;;;;;;11.98;5.47;;;;;;;13.89;66.44;102353.72;5068883;28;20040;-73
2023/05/19 08:47:54;;;;;;;10.85;5.30;;;;;;;13.98;68.41;102356.03;5069091;28;20025;-81
2023/05/19 08:50:27;;;;;;;12.80;5.60;;;;;;;14.11;67.08;102348.88;5068873;28;20029;-74
2023/05/19 08:53:02;;;;;;;10.50;5.47;;;;;;;14.24;67.78;102350.75;5069786;28;20411;-78
2023/05/19 08:55:34;;;;;;;12.05;5.55;;;;;;;14.34;66.30;102349.25;5067035;28;20139;-76
2023/05/19 08:58:02;;;;;;;12.70;5.20;;;;;;;14.43;62.78;102343.56;5068963;28;20031;-78
2023/05/19 09:00:28;;;;;;;10.70;5.07;;;;;;;14.49;61.98;102348.16;5065822;28;20029;-74
2023/05/19 09:02:54;;;;;;;9.88;4.20;;;;;;;14.60;59.81;102346.66;5080785;28;20051;-75
2023/05/19 09:05:19;;;;;;;10.70;4.70;;;;;;;14.68;59.63;102341.84;5075824;28;20049;-78
2023/05/19 09:07:45;;;;;;;14.32;4.10;;;;;;;14.79;57.32;102339.47;5068385;28;20039;-79
2023/05/19 09:10:15;;;;;;;12.13;3.92;;;;;;;14.79;55.58;102339.47;5063496;28;20075;-78
2023/05/19 09:12:46;;;;;;;10.73;4.20;;;;;;;14.81;56.23;102335.50;5066901;28;20120;-79
2023/05/19 09:15:12;;;;;;;11.18;4.18;;;;;;;14.83;54.43;102333.38;5067989;28;20472;-77
2023/05/19 09:17:38;;;;;;;10.75;4.15;;;;;;;14.93;55.08;102329.34;5051776;28;20025;-77
2023/05/19 09:20:09;;;;;;;13.07;4.32;;;;;;;14.99;56.14;102333.91;5046179;28;20123;-74
2023/05/19 09:22:40;;;;;;;10.45;3.08;;;;;;;15.07;54.90;102323.59;5055269;28;20024;-74
2023/05/19 09:25:16;;;;;;;13.40;3.40;;;;;;;15.21;53.02;102318.06;5053721;28;20025;-76
2023/05/19 09:27:41;;;;;;;9.27;3.20;;;;;;;15.26;51.53;102322.84;5054962;28;20025;-79
2023/05/19 09:30:08;;;;;;;8.40;3.30;;;;;;;15.25;51.81;102322.03;5054843;28;20029;-77
2023/05/19 09:32:34;;;;;;;10.38;3.30;;;;;;;15.22;49.86;102317.84;5053286;28;20082;-77
2023/05/19 09:35:02;;;;;;;7.22;2.70;;;;;;;15.39;51.02;102315.41;5049655;28;20029;-80
2023/05/19 09:37:28;;;;;;;9.30;3.10;;;;;;;15.42;51.34;102305.97;5034922;28;20068;-76
2023/05/19 09:39:53;;;;;;;11.13;3.15;;;;;;;15.48;49.78;102305.06;5034696;28;20065;-78
2023/05/19 09:42:25;;;;;;;9.82;2.58;;;;;;;15.59;49.51;102314.41;5041887;28;20036;-73
2023/05/19 09:45:05;;;;;;;6.65;2.80;;;;;;;15.64;49.22;102309.16;5054710;28;20028;-77
2023/05/19 09:47:40;;;;;;;7.43;2.60;;;;;;;15.63;47.87;102309.38;5053236;28;20033;-78
2023/05/19 09:50:10;;;;;;;8.02;2.80;;;;;;;15.58;48.62;102315.50;5055031;28;20028;-76
2023/05/19 09:52:42;;;;;;;9.18;2.70;;;;;;;15.59;49.72;102314.41;5054601;28;20484;-74
2023/05/19 09:55:10;;;;;;;11.45;2.97;;;;;;;15.70;49.38;102312.84;5054321;28;20087;-73
2023/05/19 09:57:37;;;;;;;7.10;2.60;;;;;;;15.74;49.34;102317.63;5050738;28;20037;-74
2023/05/19 10:00:14;;;;;;;8.82;2.70;;;;;;;15.75;49.09;102318.50;5052059;28;20044;-72
2023/05/19 10:02:42;;;;;;;5.88;2.50;;;;;;;15.79;49.04;102319.72;5045727;28;20095;-74
2023/05/19 10:05:15;;;;;;;7.57;2.85;;;;;;;15.83;47.82;102318.22;5065524;28;20047;-70
2023/05/19 10:07:43;;;;;;;10.13;2.65;;;;;;;15.83;47.98;102314.66;5059756;28;20060;-75
2023/05/19 10:10:11;;;;;;;9.07;2.90;;;;;;;15.84;47.35;102308.97;5053941;28;20097;-71
2023/05/19 10:12:38;;;;;;;8.35;2.40;;;;;;;16.03;47.25;102303.53;5051290;28;20056;-72
2023/05/19 10:15:05;;;;;;;10.57;2.83;;;;;;;16.13;49.81;102312.88;5051591;28;20032;-72
2023/05/19 10:17:31;;;;;;;7.85;2.50;;;;;;;16.13;46.37;102310.16;5051785;28;20029;-72
2023/05/19 10:19:58;;;;;;;6.18;2.30;;;;;;;16.26;44.70;102311.06;5051903;28;20036;-75
2023/05/19 10:22:23;;;;;;;9.45;2.70;;;;;;;16.46;44.89;102314.41;5052398;28;20032;-71
2023/05/19 10:24:48;;;;;;;8.30;2.90;;;;;;;16.49;44.55;102313.13;5053762;28;20086;-73
2023/05/19 10:27:15;;;;;;;9.75;3.00;;;;;;;16.33;44.32;102313.72;5052830;28;20029;-72
2023/05/19 10:29:46;;;;;;;9.95;2.58;;;;;;;16.30;45.15;102312.28;5049543;28;20378;-73
2023/05/19 10:32:17;;;;;;;8.95;3.20;;;;;;;16.38;46.19;102306.53;5050610;28;20036;-74
2023/05/19 10:35:01;;;;;;;7.03;2.53;;;;;;;16.32;45.30;102301.97;5052639;28;20064;-71
2023/05/19 10:37:52;;;;;;;8.50;2.75;;;;;;;16.36;47.02;102297.69;5051618;28;20163;-69
2023/05/19 10:40:27;;;;;;;11.57;3.30;;;;;;;16.49;46.23;102296.72;5053672;28;20049;-74
2023/05/19 10:43:20;;;;;;;6.32;2.75;;;;;;;16.58;45.73;102289.06;5053677;28;20044;-73
2023/05/19 10:45:51;;;;;;;9.45;3.22;;;;;;;16.64;45.97;102288.13;5041369;28;20041;-71
2023/05/19 10:48:19;;;;;;;6.63;2.90;;;;;;;16.79;45.20;102291.28;5033474;28;20026;-74
2023/05/19 10:50:45;;;;;;;11.02;3.30;;;;;;;16.80;45.87;102290.22;5039564;28;20051;-74
2023/05/19 10:53:20;;;;;;;11.90;3.30;;;;;;;17.05;46.57;102283.78;5052234;28;20033;-71
2023/05/19 10:55:50;;;;;;;12.55;2.95;;;;;;;17.04;47.44;102281.28;5051557;28;20033;-76
2023/05/19 10:58:35;;;;;;;9.35;3.38;;;;;;;17.05;46.30;102286.53;5053521;28;20025;-73
2023/05/19 11:01:00;;;;;;;10.27;3.05;;;;;;;17.28;45.89;102285.72;5052288;28;20070;-74
2023/05/19 11:03:27;;;;;;;9.25;3.30;;;;;;;17.22;44.93;102280.38;5070067;28;20528;-69
2023/05/19 11:06:48;;;;;;;8.10;2.80;;;;;;;17.25;44.83;102278.00;5051418;28;20041;-75
2023/05/19 11:09:16;;;;;;;10.23;3.10;;;;;;;17.30;43.80;102282.75;5031578;28;20404;-74
2023/05/19 11:11:54;;;;;;;10.07;3.25;;;;;;;17.18;43.63;102272.63;5051396;28;20542;-76
2023/05/19 11:14:21;;;;;;;11.20;3.20;;;;;;;17.22;43.17;102280.38;5050797;28;20488;-74
2023/05/19 11:16:48;;;;;;;9.45;3.10;;;;;;;17.29;43.00;102278.38;5051686;28;20029;-76
2023/05/19 11:19:31;;;;;;;8.63;2.90;;;;;;;17.36;43.56;102285.41;5053055;28;20029;-74
2023/05/19 11:22:07;;;;;;;7.15;2.30;;;;;;;17.34;42.19;102278.50;5053068;28;20039;-73
2023/05/19 11:24:36;;;;;;;6.53;2.70;;;;;;;17.46;42.44;102270.31;5052179;28;20044;-75
2023/05/19 11:27:19;;;;;;;5.25;2.50;;;;;;;17.66;42.81;102268.06;5052866;28;20031;-71
2023/05/19 11:29:45;;;;;;;10.07;3.17;;;;;;;17.70;40.20;102271.97;5053711;28;20029;-70
2023/05/19 11:32:11;;;;;;;6.63;2.40;;;;;;;17.78;39.68;102278.16;5033565;28;20112;-76
2023/05/19 11:34:37;;;;;;;7.38;2.78;;;;;;;17.83;39.92;102267.31;5050395;28;20041;-71
2023/05/19 11:37:03;;;;;;;8.65;2.55;;;;;;;18.06;41.84;102266.50;5052716;28;20029;-70
2023/05/19 11:39:31;;;;;;;9.60;2.95;;;;;;;18.17;42.04;102260.16;5052259;28;20025;-71
2023/05/19 11:41:56;;;;;;;6.70;2.55;;;;;;;18.31;40.36;102268.94;5051659;28;20053;-74
2023/05/19 11:44:21;;;;;;;6.85;2.60;;;;;;;18.32;38.84;102264.31;5052380;28;20118;-73
2023/05/19 11:46:47;;;;;;;9.70;2.88;;;;;;;18.31;38.59;102268.09;5051485;28;20170;-71
2023/05/19 11:49:14;;;;;;;7.97;2.63;;;;;;;18.32;38.96;102253.34;5047981;28;20392;-75
2023/05/19 11:51:42;;;;;;;8.38;2.53;;;;;;;18.28;37.86;102258.44;5051882;28;20029;-76
2023/05/19 11:54:10;;;;;;;7.63;2.40;;;;;;;18.31;38.33;102252.47;5050855;28;20033;-72
2023/05/19 11:56:40;;;;;;;6.50;2.50;;;;;;;18.29;39.24;102253.81;5052057;28;20082;-71
2023/05/19 11:59:06;;;;;;;8.00;2.55;;;;;;;18.41;39.83;102257.34;5052461;28;20029;-75
2023/05/19 12:01:32;;;;;;;8.30;2.72;;;;;;;18.48;40.10;102249.84;5053831;28;20650;-73
2023/05/19 12:03:58;;;;;;;8.38;2.53;;;;;;;18.57;39.66;102242.88;5057231;28;20473;-73
2023/05/19 12:06:25;;;;;;;9.32;2.88;;;;;;;18.68;40.05;102246.63;5052208;28;20049;-71
2023/05/19 12:08:51;;;;;;;9.95;2.88;;;;;;;18.53;37.95;102241.69;5051362;28;20083;-71
2023/05/19 12:11:17;;;;;;;11.35;2.72;;;;;;;18.60;38.89;102239.66;5051017;28;20033;-77
2023/05/19 12:13:43;;;;;;;7.28;2.75;;;;;;;18.65;39.76;102246.31;5052085;28;20032;-71
2023/05/19 12:16:09;;;;;;;10.18;3.17;;;;;;;18.71;39.71;102239.84;5052307;28;20031;-74
2023/05/19 12:18:39;;;;;;;8.18;3.03;;;;;;;18.81;37.93;102240.03;5050063;28;20037;-77
2023/05/19 12:21:05;;;;;;;6.03;2.72;;;;;;;18.86;38.37;102236.59;5052252;28;20029;-71
2023/05/19 12:23:31;;;;;;;7.90;2.85;;;;;;;18.85;37.79;102241.22;5052045;28;20037;-70
2023/05/19 12:25:57;;;;;;;8.32;2.72;;;;;;;19.03;39.21;102231.09;5052153;28;20461;-72
2023/05/19 12:28:23;;;;;;;8.40;2.97;;;;;;;19.02;38.17;102243.16;5052053;28;20082;-74
2023/05/19 12:30:50;;;;;;;7.63;2.90;;;;;;;19.08;38.47;102237.53;5050824;28;20036;-74
2023/05/19 12:33:17;;;;;;;8.73;2.80;;;;;;;19.07;37.71;102235.03;5050023;28;20032;-70
2023/05/19 12:35:43;;;;;;;9.95;2.75;;;;;;;19.18;39.02;102223.13;5051027;28;20064;-75
2023/05/19 12:38:08;;;;;;;6.82;2.50;;;;;;;19.22;38.16;102228.94;5052104;28;20468;-73
2023/05/19 12:40:35;;;;;;;9.27;2.83;;;;;;;19.42;39.09;102220.22;5051870;28;20033;-72
2023/05/19 12:43:00;;;;;;;10.48;2.80;;;;;;;19.54;39.72;102220.94;5052051;28;20497;-71
2023/05/19 12:45:28;;;;;;;9.38;2.72;;;;;;;19.73;38.28;102221.50;5051743;28;20060;-70
2023/05/19 12:47:53;;;;;;;6.75;2.70;;;;;;;19.62;37.76;102222.41;5050827;28;20025;-75
2023/05/19 12:50:19;;;;;;;10.75;2.80;;;;;;;19.52;38.18;102217.63;5052035;28;20032;-72
2023/05/19 12:52:50;;;;;;;9.05;2.92;;;;;;;19.59;38.27;102209.19;5054408;28;20037;-72
2023/05/19 12:55:17;;;;;;;11.15;3.03;;;;;;;19.53;38.44;102202.78;5055765;28;20032;-73
2023/05/19 12:57:43;;;;;;;7.40;2.90;;;;;;;19.37;38.39;102209.13;5055488;28;20387;-74
2023/05/19 13:00:19;;;;;;;9.52;2.88;;;;;;;19.21;38.63;102208.91;5038589;28;20160;-75
2023/05/19 13:03:01;;;;;;;9.35;2.85;;;;;;;19.28;38.43;102200.50;5067089;28;20129;-77
2023/05/19 13:05:28;;;;;;;7.47;3.00;;;;;;;19.33;37.16;102191.53;5055353;28;20051;-71
2023/05/19 13:07:57;;;;;;;7.30;2.58;;;;;;;19.55;40.10;102192.41;5055555;28;20055;-76
2023/05/19 13:10:25;;;;;;;7.68;2.80;;;;;;;19.72;38.11;102189.59;5055287;28;20029;-69
2023/05/19 13:12:52;;;;;;;11.20;2.67;;;;;;;19.76;37.49;102188.03;5055439;28;20021;-71
2023/05/19 13:15:17;;;;;;;7.28;2.50;;;;;;;19.85;37.73;102185.66;5055418;28;20033;-73
2023/05/19 13:17:45;;;;;;;7.70;2.63;;;;;;;20.06;37.59;102195.00;5054141;28;20127;-68
2023/05/19 13:20:11;;;;;;;7.00;2.58;;;;;;;20.20;37.80;102189.97;5054371;28;20456;-72
2023/05/19 13:22:36;;;;;;;6.97;2.55;;;;;;;20.43;37.34;102188.00;5055192;28;20029;-72
2023/05/19 13:25:02;;;;;;;9.35;2.63;;;;;;;20.43;35.61;102177.00;5054199;28;20380;-74
2023/05/19 13:27:27;;;;;;;7.72;2.38;;;;;;;20.43;35.28;102174.25;5053782;28;20036;-73
2023/05/19 13:29:52;;;;;;;6.25;2.60;;;;;;;20.52;36.71;102175.44;5053827;28;20039;-70
2023/05/19 13:32:17;;;;;;;8.30;2.58;;;;;;;20.63;35.74;102176.38;5055072;28;20025;-73
2023/05/19 13:34:43;;;;;;;8.43;2.55;;;;;;;20.82;36.55;102174.94;5053592;28;20037;-69
2023/05/19 13:37:08;;;;;;;8.23;2.70;;;;;;;20.76;35.42;102175.13;5055022;28;20366;-74
2023/05/19 13:39:34;;;;;;;8.75;2.75;;;;;;;20.76;35.14;102172.38;5054755;28;20029;-73
2023/05/19 13:41:59;;;;;;;11.55;2.63;;;;;;;20.78;35.19;102172.97;5054588;28;20075;-73
2023/05/19 13:44:24;;;;;;;8.45;2.50;;;;;;;21.01;36.04;102169.84;5054585;28;20183;-74
2023/05/19 13:46:50;;;;;;;8.07;2.50;;;;;;;20.92;36.02;102171.41;5054790;28;20071;-71
2023/05/19 13:49:15;;;;;;;9.70;3.08;;;;;;;20.96;34.66;102164.31;5052537;28;20086;-79
2023/05/19 13:51:42;;;;;;;9.27;3.10;;;;;;;20.66;34.42;102167.63;5057146;28;20029;-72
2023/05/19 13:54:07;;;;;;;14.52;2.90;;;;;;;20.54;35.23;102168.56;5058210;28;20017;-73
2023/05/19 13:56:33;;;;;;;9.48;2.63;;;;;;;20.28;35.38;102175.75;5052710;28;20079;-70
2023/05/19 13:58:58;;;;;;;6.80;2.80;;;;;;;20.29;35.55;102174.66;5053432;28;20116;-74
2023/05/19 14:01:23;;;;;;;10.10;3.10;;;;;;;20.47;36.68;102161.63;5040985;28;20168;-71
2023/05/19 14:03:49;;;;;;;10.85;3.03;;;;;;;20.67;35.39;102161.88;5066474;28;20033;-72
2023/05/19 14:06:14;;;;;;;9.32;2.72;;;;;;;20.74;35.32;102155.31;5054336;28;20132;-71
2023/05/19 14:08:40;;;;;;;9.60;2.53;;;;;;;20.65;34.58;102153.06;5053657;28;20067;-71
2023/05/19 14:11:05;;;;;;;8.70;2.70;;;;;;;20.50;36.28;102163.88;5054320;28;20021;-71
2023/05/19 14:13:30;;;;;;;6.88;2.30;;;;;;;20.47;34.75;102150.63;5054040;28;20052;-70
2023/05/19 14:15:56;;;;;;;18.13;3.72;;;;;;;20.56;34.77;102162.81;5054034;28;20064;-69
2023/05/19 14:18:21;;;;;;;7.75;2.67;;;;;;;20.75;35.98;102157.81;5060849;28;20060;-69
2023/05/19 14:20:46;;;;;;;8.10;2.63;;;;;;;20.92;35.52;102159.59;5054264;28;20029;-69
2023/05/19 14:23:13;;;;;;;7.88;2.42;;;;;;;20.94;36.27;102154.66;5047917;28;20446;-70
2023/05/19 14:25:39;;;;;;;9.55;2.65;;;;;;;21.08;35.27;102155.88;5052892;28;20032;-70
2023/05/19 14:28:04;;;;;;;13.88;2.90;;;;;;;21.19;35.36;102148.50;5051944;28;20116;-69
2023/05/19 14:30:29;;;;;;;10.65;2.88;;;;;;;21.28;33.71;102151.59;5053692;28;20029;-72
2023/05/19 14:32:55;;;;;;;8.25;2.42;;;;;;;21.28;34.68;102151.59;5053545;28;20025;-70
2023/05/19 14:35:20;;;;;;;10.32;2.88;;;;;;;21.30;34.70;102152.97;5053607;28;20029;-70
2023/05/19 14:37:45;;;;;;;7.25;2.50;;;;;;;21.31;34.10;102157.38;5053635;28;20124;-70
2023/05/19 14:40:11;;;;;;;8.40;2.60;;;;;;;21.36;34.08;102157.44;5053481;28;20570;-70
2023/05/19 14:42:36;;;;;;;8.23;2.33;;;;;;;21.10;34.31;102152.84;5051947;28;20036;-70
2023/05/19 14:45:02;;;;;;;9.45;3.13;;;;;;;21.00;34.45;102154.44;5051180;28;20048;-71
2023/05/19 14:47:27;;;;;;;9.98;3.38;;;;;;;21.13;34.84;102147.63;5050208;28;20047;-70
2023/05/19 14:49:53;;;;;;;9.60;3.10;;;;;;;21.23;34.52;102146.88;5066914;28;20029;-70
2023/05/19 14:52:18;;;;;;;7.55;2.92;;;;;;;21.38;34.44;102143.41;5053254;28;20392;-71
2023/05/19 14:54:43;;;;;;;10.82;3.72;;;;;;;21.45;34.55;102143.16;5052986;28;20499;-69
2023/05/19 14:57:09;;;;;;;7.97;2.88;;;;;;;21.65;34.13;102140.53;5052226;28;20060;-71
2023/05/19 14:59:38;;;;;;;8.13;3.13;;;;;;;21.77;34.47;102134.81;5051939;28;20392;-71
2023/05/19 15:02:04;;;;;;;12.68;2.83;;;;;;;21.90;34.03;102142.53;5062117;28;20183;-71
2023/05/19 15:04:29;;;;;;;7.85;2.72;;;;;;;21.90;33.21;102136.22;5046567;28;20053;-71
2023/05/19 15:06:56;;;;;;;6.53;2.80;;;;;;;22.00;33.43;102130.75;5052603;28;20028;-70
2023/05/19 15:09:21;;;;;;;7.95;2.80;;;;;;;22.09;33.34;102134.63;5053301;28;20049;-71
2023/05/19 15:11:47;;;;;;;15.02;3.25;;;;;;;22.17;33.23;102125.00;5049989;28;20515;-72
2023/05/19 15:14:12;;;;;;;9.02;3.33;;;;;;;22.34;32.80;102127.53;5045384;28;20060;-71
2023/05/19 15:16:37;;;;;;;7.47;2.93;;;;;;;22.40;33.10;102134.69;5051617;28;20365;-74
2023/05/19 15:19:02;;;;;;;8.13;2.73;;;;;;;22.50;32.96;102135.84;5049742;28;20295;-71
2023/05/19 15:21:28;;;;;;;7.05;2.55;;;;;;;22.96;32.04;102138.56;5052760;28;20279;-72
2023/05/19 15:23:53;;;;;;;11.30;3.23;;;;;;;23.85;30.59;102130.66;5050902;28;20055;-71
2023/05/19 15:26:18;;;;;;;7.05;2.63;;;;;;;24.37;30.42;102135.88;5051349;28;20295;-71
2023/05/19 15:28:44;;;;;;;10.50;3.28;;;;;;;24.67;29.55;102136.75;5046662;28;20033;-71
2023/05/19 15:31:09;;;;;;;9.73;3.10;;;;;;;24.92;28.29;102131.00;5048610;28;20379;-71
2023/05/19 15:33:35;;;;;;;7.37;2.90;;;;;;;25.30;28.35;102127.59;5056180;28;20029;-71
2023/05/19 15:36:00;;;;;;;7.43;2.60;;;;;;;25.52;28.28;102121.53;5052658;28;20264;-71
2023/05/19 15:38:25;;;;;;;11.75;3.50;;;;;;;25.81;28.27;102129.72;5052924;28;20087;-71
2023/05/19 15:40:50;;;;;;;7.23;2.93;;;;;;;25.62;27.84;102123.31;5040795;28;20029;-71
2023/05/19 15:43:16;;;;;;;8.73;3.37;;;;;;;25.25;27.70;102120.13;5036797;28;20321;-70
2023/05/19 15:45:41;;;;;;;8.10;3.53;;;;;;;24.81;27.90;102120.31;5053032;28;20291;-70
2023/05/19 15:48:07;;;;;;;11.02;3.90;;;;;;;24.85;28.32;102116.69;5052672;28;20090;-70
2023/05/19 15:50:32;;;;;;;10.07;3.50;;;;;;;25.00;27.89;102112.09;5052260;28;20036;-71
2023/05/19 15:52:57;;;;;;;6.95;2.92;;;;;;;24.99;28.37;102110.47;5048753;28;20032;-71
2023/05/19 15:55:23;;;;;;;8.18;2.60;;;;;;;25.23;27.92;102116.03;5051851;28;20036;-70
2023/05/19 15:57:48;;;;;;;6.95;2.33;;;;;;;25.36;27.66;102109.78;5037053;28;20083;-74
2023/05/19 16:00:13;;;;;;;6.47;2.23;;;;;;;25.39;28.08;102108.38;5032198;28;20072;-69
2023/05/19 16:02:39;;;;;;;6.30;2.25;;;;;;;25.10;27.87;102109.22;5052404;28;20811;-70
